Time;durP1;ratioP1;P1;durP2;ratioP2;P2;SDS_P1;SDS_P2;PMS_P1;PMS_P2;Temp;Humidity;BMP_temperature;BMP_pressure;BME280_temperature;BME280_humidity;BME280_pressure;Samples;Min_cycle;Max_cycle;Signal;HPM_P1;HPM_P2
2021/05/31 00:01:45;;;;;;;0.50;0.40;;;14.70;99.90;;;;;;5135797;27;20199;-78
2021/05/31 00:04:12;;;;;;;0.50;0.40;;;14.60;99.90;;;;;;5136078;27;20202;-78
2021/05/31 00:06:43;;;;;;;0.50;0.40;;;14.50;99.90;;;;;;5136961;27;20433;-78
2021/05/31 00:09:09;;;;;;;0.50;0.40;;;14.30;99.90;;;;;;5137402;27;20464;-80
2021/05/31 00:11:35;;;;;;;0.50;0.40;;;14.30;99.90;;;;;;5137655;27;20437;-77
2021/05/31 00:14:03;;;;;;;0.50;0.40;;;14.20;99.90;;;;;;5126472;27;20189;-78
2021/05/31 00:16:29;;;;;;;0.50;0.40;;;14.20;99.90;;;;;;5095142;28;20694;-79
2021/05/31 00:18:55;;;;;;;0.50;0.40;;;14.10;99.90;;;;;;5096257;28;20463;-77
2021/05/31 00:21:22;;;;;;;0.50;0.40;;;14.10;99.90;;;;;;5096437;28;20220;-78
2021/05/31 00:23:48;;;;;;;0.50;0.40;;;14.00;99.90;;;;;;5100817;28;20192;-79
2021/05/31 00:26:16;;;;;;;0.50;0.40;;;14.00;99.90;;;;;;5095222;28;20189;-78
2021/05/31 00:28:43;;;;;;;0.50;0.40;;;14.00;99.90;;;;;;5094700;28;20224;-78
2021/05/31 00:31:10;;;;;;;0.50;0.40;;;13.90;99.90;;;;;;5094712;28;20203;-78
2021/05/31 00:33:36;;;;;;;0.55;0.55;;;13.90;99.90;;;;;;5094707;28;20198;-79
2021/05/31 00:36:03;;;;;;;0.50;0.40;;;13.80;99.90;;;;;;5095007;28;20209;-79
2021/05/31 00:38:29;;;;;;;0.50;0.40;;;13.80;99.90;;;;;;5094440;28;20223;-79
2021/05/31 00:40:55;;;;;;;0.50;0.40;;;13.80;99.90;;;;;;5094580;28;20265;-78
2021/05/31 00:43:21;;;;;;;0.50;0.40;;;13.70;99.90;;;;;;5116072;28;20199;-79
2021/05/31 00:45:48;;;;;;;0.50;0.40;;;13.60;99.90;;;;;;5129608;28;20200;-79
2021/05/31 00:48:16;;;;;;;0.50;0.40;;;13.60;99.90;;;;;;5134590;28;20283;-79
2021/05/31 00:50:43;;;;;;;0.50;0.40;;;13.50;99.90;;;;;;5135520;28;20199;-78
2021/05/31 00:53:10;;;;;;;0.50;0.40;;;13.50;99.90;;;;;;5135287;28;20199;-79
2021/05/31 00:55:36;;;;;;;0.60;0.60;;;13.40;99.90;;;;;;5135828;28;20234;-78
2021/05/31 00:58:04;;;;;;;0.50;0.40;;;13.30;99.90;;;;;;5134140;28;20231;-77
2021/05/31 01:00:30;;;;;;;0.50;0.40;;;13.30;99.90;;;;;;5136067;27;20442;-79
2021/05/31 01:02:56;;;;;;;0.50;0.40;;;13.30;99.90;;;;;;5138036;27;20199;-79
2021/05/31 01:05:24;;;;;;;0.50;0.40;;;13.30;99.90;;;;;;5139575;27;20196;-79
2021/05/31 01:07:57;;;;;;;0.50;0.40;;;13.20;99.90;;;;;;5138589;27;20260;-79
2021/05/31 01:10:29;;;;;;;0.50;0.40;;;13.10;99.90;;;;;;5139321;27;20258;-79
2021/05/31 01:12:58;;;;;;;0.50;0.40;;;13.10;99.90;;;;;;5137003;27;20199;-79
2021/05/31 01:15:27;;;;;;;0.50;0.40;;;13.10;99.90;;;;;;5130233;27;20199;-79
2021/05/31 01:17:58;;;;;;;0.50;0.40;;;13.10;99.90;;;;;;5137932;27;20222;-78
2021/05/31 01:20:55;;;;;;;0.50;0.40;;;13.00;99.90;;;;;;5139496;27;20192;-81
2021/05/31 01:23:24;;;;;;;0.50;0.40;;;13.00;99.90;;;;;;5138800;27;20176;-77
2021/05/31 01:25:57;;;;;;;0.50;0.40;;;13.00;99.90;;;;;;5139289;27;20564;-79
2021/05/31 01:28:46;;;;;;;0.50;0.40;;;12.90;99.90;;;;;;5138526;27;20207;-79
2021/05/31 01:31:15;;;;;;;0.50;0.40;;;12.90;99.90;;;;;;5138681;27;20221;-79
2021/05/31 01:33:42;;;;;;;2.15;2.05;;;12.80;99.90;;;;;;5138859;27;20220;-79
2021/05/31 01:36:10;;;;;;;0.50;0.40;;;12.70;99.90;;;;;;5138830;27;20608;-78
2021/05/31 01:38:39;;;;;;;0.50;0.40;;;12.70;99.90;;;;;;5137610;27;20224;-80
2021/05/31 01:41:06;;;;;;;0.50;0.40;;;12.60;99.90;;;;;;5138533;27;20553;-79
2021/05/31 01:43:34;;;;;;;0.50;0.40;;;12.60;99.90;;;;;;5131487;27;20241;-80
2021/05/31 01:46:01;;;;;;;0.50;0.40;;;12.50;99.90;;;;;;5134833;27;20201;-79
2021/05/31 01:48:28;;;;;;;0.50;0.40;;;12.40;99.90;;;;;;5139833;27;20219;-77
2021/05/31 01:50:55;;;;;;;0.50;0.40;;;12.40;99.90;;;;;;5138385;27;20203;-79
2021/05/31 01:53:22;;;;;;;0.50;0.40;;;12.30;99.90;;;;;;5138742;27;20199;-79
2021/05/31 01:55:49;;;;;;;0.50;0.40;;;12.20;99.90;;;;;;5138926;27;20203;-79
2021/05/31 01:58:16;;;;;;;0.50;0.40;;;12.20;99.90;;;;;;5137762;27;20216;-79
2021/05/31 02:00:44;;;;;;;0.50;0.40;;;12.20;99.90;;;;;;5138187;27;20196;-79
2021/05/31 02:03:10;;;;;;;0.50;0.40;;;12.20;99.90;;;;;;5137507;27;20202;-78
2021/05/31 02:05:37;;;;;;;0.50;0.40;;;12.10;99.90;;;;;;5138851;27;20210;-79
2021/05/31 02:08:03;;;;;;;0.50;0.40;;;12.10;99.90;;;;;;5137966;27;20211;-77
2021/05/31 02:10:29;;;;;;;0.50;0.40;;;12.10;99.90;;;;;;5138418;27;20192;-76
2021/05/31 02:12:58;;;;;;;0.50;0.40;;;12.10;99.90;;;;;;5134440;27;20199;-79
2021/05/31 02:15:29;;;;;;;0.50;0.40;;;12.10;99.90;;;;;;5129460;27;20275;-79
2021/05/31 02:18:06;;;;;;;0.50;0.40;;;12.10;99.90;;;;;;5137692;27;20216;-77
2021/05/31 02:20:33;;;;;;;0.50;0.40;;;12.20;99.90;;;;;;5139145;27;20188;-78
2021/05/31 02:23:05;;;;;;;0.50;0.40;;;12.30;99.90;;;;;;5138670;27;20191;-78
2021/05/31 02:25:33;;;;;;;0.50;0.40;;;12.30;99.90;;;;;;5140849;27;20574;-79
2021/05/31 02:28:00;;;;;;;0.50;0.40;;;12.30;99.90;;;;;;5139540;27;20597;-75
2021/05/31 02:30:27;;;;;;;0.50;0.40;;;12.20;99.90;;;;;;5142394;27;20196;-79
2021/05/31 02:32:55;;;;;;;0.50;0.40;;;12.20;99.90;;;;;;5140198;27;20614;-79
2021/05/31 02:35:23;;;;;;;0.50;0.40;;;12.20;99.90;;;;;;5139698;27;20198;-78
2021/05/31 02:37:50;;;;;;;0.50;0.40;;;12.10;99.90;;;;;;5144479;27;20260;-79
2021/05/31 02:40:18;;;;;;;0.50;0.40;;;12.10;99.90;;;;;;5143668;27;20556;-79
2021/05/31 02:42:46;;;;;;;0.50;0.40;;;12.00;99.90;;;;;;5142052;27;20189;-78
2021/05/31 02:45:14;;;;;;;0.50;0.40;;;12.00;99.90;;;;;;5130874;27;20643;-79
2021/05/31 02:47:40;;;;;;;0.50;0.40;;;12.00;99.90;;;;;;5137384;27;20208;-78
2021/05/31 02:50:07;;;;;;;0.50;0.40;;;12.00;99.90;;;;;;5136072;27;20687;-79
2021/05/31 02:52:39;;;;;;;0.50;0.40;;;12.00;99.90;;;;;;5143824;27;20230;-79
2021/05/31 02:55:07;;;;;;;0.50;0.40;;;11.90;99.90;;;;;;5143325;27;20184;-79
2021/05/31 02:57:33;;;;;;;0.50;0.40;;;11.90;99.90;;;;;;5142468;27;20211;-79
2021/05/31 02:59:59;;;;;;;0.50;0.40;;;11.80;99.90;;;;;;5143436;27;20219;-78
2021/05/31 03:02:26;;;;;;;0.50;0.40;;;11.80;99.90;;;;;;5143030;27;20287;-78
2021/05/31 03:04:52;;;;;;;0.50;0.40;;;11.80;99.90;;;;;;5143026;27;20190;-79
2021/05/31 03:07:18;;;;;;;0.50;0.40;;;11.70;99.90;;;;;;5140302;27;20207;-79
2021/05/31 03:09:46;;;;;;;0.50;0.40;;;11.80;99.90;;;;;;5140723;27;20240;-78
2021/05/31 03:12:13;;;;;;;0.50;0.40;;;11.70;99.90;;;;;;5137275;27;20199;-79
2021/05/31 03:14:39;;;;;;;0.50;0.40;;;11.70;99.90;;;;;;5131462;27;20183;-78
2021/05/31 03:17:05;;;;;;;0.50;0.40;;;11.70;99.90;;;;;;5138631;27;20298;-78
2021/05/31 03:19:32;;;;;;;0.50;0.40;;;11.70;99.90;;;;;;5140096;27;20198;-78
2021/05/31 03:21:58;;;;;;;0.50;0.40;;;11.70;99.90;;;;;;5138915;27;20198;-78
2021/05/31 03:24:25;;;;;;;0.50;0.40;;;11.70;99.90;;;;;;5134532;27;20282;-78
2021/05/31 03:26:52;;;;;;;0.50;0.40;;;11.70;99.90;;;;;;5134598;27;20192;-80
2021/05/31 03:29:19;;;;;;;0.50;0.40;;;11.70;99.90;;;;;;5134857;27;20274;-79
2021/05/31 03:31:45;;;;;;;0.50;0.40;;;11.70;99.90;;;;;;5134891;27;20192;-78
2021/05/31 03:34:12;;;;;;;0.50;0.40;;;11.60;99.90;;;;;;5134377;27;20204;-78
2021/05/31 03:36:38;;;;;;;0.50;0.40;;;11.60;99.90;;;;;;5133762;27;20277;-79
2021/05/31 03:39:06;;;;;;;0.50;0.40;;;11.60;99.90;;;;;;5138308;27;20271;-78
2021/05/31 03:41:33;;;;;;;0.50;0.40;;;11.60;99.90;;;;;;5138820;27;20597;-79
2021/05/31 03:44:01;;;;;;;0.50;0.40;;;11.60;99.90;;;;;;5130816;27;20233;-78
2021/05/31 03:46:27;;;;;;;0.50;0.40;;;11.60;99.90;;;;;;5138083;27;20232;-77
2021/05/31 03:48:53;;;;;;;0.50;0.40;;;11.60;99.90;;;;;;5136366;27;20211;-78
2021/05/31 03:51:20;;;;;;;0.50;0.40;;;11.60;99.90;;;;;;5134396;27;20188;-77
2021/05/31 03:53:46;;;;;;;0.50;0.40;;;11.50;99.90;;;;;;5134920;27;20199;-77
2021/05/31 03:56:13;;;;;;;0.50;0.40;;;11.60;99.90;;;;;;5136377;27;20715;-78
2021/05/31 03:58:42;;;;;;;0.50;0.40;;;11.60;99.90;;;;;;5136947;27;20619;-80
2021/05/31 04:01:11;;;;;;;0.50;0.40;;;11.60;99.90;;;;;;5136831;27;20196;-77
2021/05/31 04:03:37;;;;;;;0.50;0.40;;;11.60;99.90;;;;;;5136412;27;20215;-79
2021/05/31 04:06:16;;;;;;;0.50;0.40;;;11.60;99.90;;;;;;5137490;27;20198;-79
2021/05/31 04:11:35;;;;;;;0.50;0.40;;;11.70;99.90;;;;;;5138621;27;20193;-79
2021/05/31 04:14:06;;;;;;;0.50;0.40;;;11.70;99.90;;;;;;5126198;27;20196;-80
2021/05/31 04:16:34;;;;;;;0.50;0.40;;;11.70;99.90;;;;;;5095225;28;20240;-78
2021/05/31 04:19:01;;;;;;;0.50;0.40;;;11.70;99.90;;;;;;5095349;28;20216;-79
2021/05/31 04:21:27;;;;;;;0.63;0.63;;;11.70;99.90;;;;;;5095704;28;20197;-78
2021/05/31 04:23:53;;;;;;;0.50;0.40;;;11.80;99.90;;;;;;5094523;28;20540;-76
2021/05/31 04:26:20;;;;;;;0.50;0.40;;;11.90;99.90;;;;;;5093564;28;20193;-77
2021/05/31 04:28:47;;;;;;;0.50;0.40;;;11.80;99.90;;;;;;5092914;28;20746;-77
2021/05/31 04:31:14;;;;;;;0.50;0.40;;;11.90;99.90;;;;;;5092909;28;20688;-76
2021/05/31 04:33:41;;;;;;;0.50;0.40;;;11.90;99.90;;;;;;5091554;28;20219;-76
2021/05/31 04:36:08;;;;;;;0.50;0.40;;;12.00;99.90;;;;;;5090732;28;20194;-78
2021/05/31 04:38:34;;;;;;;4.53;1.17;;;12.00;99.90;;;;;;5092001;28;20361;-77
2021/05/31 04:41:01;;;;;;;0.50;0.40;;;12.10;99.90;;;;;;5092012;28;20197;-77
2021/05/31 04:43:28;;;;;;;5.07;1.63;;;12.10;99.90;;;;;;5117810;28;20199;-79
2021/05/31 04:45:54;;;;;;;0.50;0.40;;;12.10;99.90;;;;;;5116428;28;20255;-78
2021/05/31 04:48:20;;;;;;;0.50;0.40;;;12.10;99.90;;;;;;5111758;28;20219;-78
2021/05/31 04:50:55;;;;;;;0.60;0.60;;;12.20;99.90;;;;;;5111894;28;20245;-78
2021/05/31 04:53:22;;;;;;;0.50;0.40;;;12.30;99.90;;;;;;5112527;28;20633;-77
2021/05/31 04:55:48;;;;;;;0.50;0.40;;;12.50;99.90;;;;;;5101794;28;20194;-79
2021/05/31 04:58:15;;;;;;;0.50;0.40;;;12.50;99.90;;;;;;5105836;28;20224;-79
2021/05/31 05:00:41;;;;;;;0.82;0.82;;;12.60;99.90;;;;;;5113218;28;20202;-79
2021/05/31 05:03:07;;;;;;;0.50;0.40;;;12.70;99.90;;;;;;5113114;28;20602;-77
2021/05/31 05:05:33;;;;;;;3.42;3.22;;;12.70;99.90;;;;;;5113060;28;20246;-77
2021/05/31 05:08:01;;;;;;;4.97;0.85;;;12.80;99.90;;;;;;5112818;28;20212;-77
2021/05/31 05:10:27;;;;;;;4.55;1.27;;;12.90;99.90;;;;;;5112226;28;20196;-77
2021/05/31 05:12:53;;;;;;;0.50;0.40;;;13.00;99.90;;;;;;5117147;28;20192;-78
2021/05/31 05:15:21;;;;;;;0.63;0.63;;;13.00;99.90;;;;;;5121573;28;20200;-79
2021/05/31 05:17:48;;;;;;;1.90;1.80;;;13.10;99.90;;;;;;5112903;28;20223;-80
2021/05/31 05:20:16;;;;;;;0.50;0.40;;;13.20;99.90;;;;;;5113501;28;20193;-79
2021/05/31 05:22:43;;;;;;;0.50;0.40;;;13.30;99.90;;;;;;5113466;28;20197;-79
2021/05/31 05:25:12;;;;;;;0.50;0.40;;;13.40;99.90;;;;;;5114068;28;20197;-79
2021/05/31 05:27:39;;;;;;;1.15;1.15;;;13.50;99.90;;;;;;5113146;28;20219;-79
2021/05/31 05:30:06;;;;;;;0.50;0.40;;;13.60;99.90;;;;;;5114591;28;20193;-79
2021/05/31 05:32:34;;;;;;;0.50;0.40;;;13.80;99.90;;;;;;5113628;28;20674;-79
2021/05/31 05:35:07;;;;;;;0.55;0.40;;;13.90;99.90;;;;;;5113098;28;20192;-79
2021/05/31 05:37:41;;;;;;;0.50;0.50;;;14.10;99.90;;;;;;5112272;28;20273;-80
2021/05/31 05:43:15;;;;;;;0.50;0.40;;;14.40;99.90;;;;;;5120907;28;20226;-79
2021/05/31 05:45:54;;;;;;;0.50;0.40;;;14.50;99.90;;;;;;5120509;28;20653;-80
2021/05/31 05:48:20;;;;;;;0.50;0.40;;;14.60;99.90;;;;;;5134164;27;20449;-78
2021/05/31 05:50:47;;;;;;;1.55;1.45;;;14.80;99.90;;;;;;5122807;27;20193;-78
2021/05/31 05:53:13;;;;;;;1.33;1.20;;;14.90;99.90;;;;;;5116592;28;20266;-79
2021/05/31 05:55:39;;;;;;;1.37;0.83;;;14.90;99.90;;;;;;5117528;28;20569;-78
2021/05/31 05:58:07;;;;;;;2.90;2.57;;;15.00;99.90;;;;;;5115895;28;20470;-79
2021/05/31 06:00:34;;;;;;;1.40;0.90;;;15.00;99.90;;;;;;5116935;28;20445;-78
2021/05/31 06:03:00;;;;;;;0.70;0.70;;;15.00;99.90;;;;;;5116657;28;20204;-79
2021/05/31 06:05:27;;;;;;;0.50;0.40;;;15.20;99.90;;;;;;5117073;28;20276;-80
2021/05/31 06:07:53;;;;;;;0.50;0.40;;;15.40;99.90;;;;;;5116830;28;20795;-79
2021/05/31 06:10:19;;;;;;;0.50;0.40;;;15.70;99.90;;;;;;5117311;28;20188;-80
2021/05/31 06:12:46;;;;;;;0.50;0.40;;;16.00;99.90;;;;;;5122504;27;20185;-80
2021/05/31 06:15:14;;;;;;;0.60;0.50;;;16.70;99.90;;;;;;5128375;27;20433;-76
2021/05/31 06:17:41;;;;;;;1.27;1.03;;;17.70;99.90;;;;;;5135812;27;20497;-78
2021/05/31 06:20:08;;;;;;;2.50;0.83;;;18.00;99.90;;;;;;5136148;27;20461;-77
2021/05/31 06:22:39;;;;;;;0.73;0.73;;;19.00;99.90;;;;;;5135866;27;20455;-79
2021/05/31 06:25:07;;;;;;;26.90;3.73;;;18.10;99.90;;;;;;5136048;27;20499;-77
2021/05/31 06:27:33;;;;;;;0.50;0.40;;;18.00;99.90;;;;;;5135199;27;20456;-77
2021/05/31 06:29:59;;;;;;;0.50;0.40;;;18.00;99.90;;;;;;5135464;27;20452;-78
2021/05/31 06:32:27;;;;;;;0.70;0.70;;;18.40;99.90;;;;;;5135375;27;20441;-79
2021/05/31 06:34:53;;;;;;;0.50;0.30;;;18.70;99.90;;;;;;5118007;27;20439;-79
2021/05/31 06:37:19;;;;;;;1.43;1.33;;;18.80;99.90;;;;;;5114985;28;20488;-79
2021/05/31 06:39:46;;;;;;;1.00;1.00;;;18.90;99.90;;;;;;5115991;28;20444;-79
2021/05/31 06:42:12;;;;;;;0.50;0.40;;;18.90;99.90;;;;;;5117094;27;20830;-79
2021/05/31 06:44:39;;;;;;;0.60;0.57;;;19.00;99.90;;;;;;5131061;27;20420;-78
2021/05/31 06:47:07;;;;;;;3.23;1.70;;;19.70;99.90;;;;;;5114569;28;20809;-78
2021/05/31 06:49:35;;;;;;;0.50;0.40;;;19.90;99.90;;;;;;5110263;28;20449;-80
2021/05/31 06:52:02;;;;;;;1.63;0.57;;;19.30;99.90;;;;;;5094352;28;20445;-80
2021/05/31 06:54:28;;;;;;;1.63;0.93;;;19.60;99.90;;;;;;5094428;28;20446;-78
2021/05/31 06:56:54;;;;;;;0.77;0.77;;;20.70;99.90;;;;;;5095215;28;20475;-77
2021/05/31 06:59:20;;;;;;;0.70;0.70;;;22.00;99.90;;;;;;5095357;28;20463;-80
2021/05/31 07:01:47;;;;;;;0.50;0.50;;;22.80;99.90;;;;;;5095480;28;20940;-81
2021/05/31 07:04:15;;;;;;;0.50;0.40;;;23.20;99.90;;;;;;5094568;28;20808;-79
2021/05/31 07:06:43;;;;;;;0.50;0.30;;;23.10;99.90;;;;;;5094639;28;20437;-79
2021/05/31 07:09:09;;;;;;;0.83;0.83;;;23.00;99.90;;;;;;5094083;28;20455;-80
2021/05/31 07:11:36;;;;;;;0.50;0.30;;;22.90;99.90;;;;;;5094476;28;20438;-79
2021/05/31 07:14:03;;;;;;;1.90;1.80;;;22.10;99.90;;;;;;5121364;27;20438;-77
2021/05/31 07:16:32;;;;;;;0.70;0.70;;;21.70;99.90;;;;;;5094124;28;20439;-79
2021/05/31 07:18:58;;;;;;;5.80;1.17;;;21.70;99.90;;;;;;5095475;28;20456;-80
2021/05/31 07:21:25;;;;;;;0.50;0.37;;;21.40;99.90;;;;;;5095176;28;20436;-80
2021/05/31 07:23:52;;;;;;;0.50;0.40;;;21.30;99.90;;;;;;5094945;28;20439;-80
2021/05/31 07:26:18;;;;;;;0.50;0.30;;;21.30;99.90;;;;;;5096601;28;20443;-80
2021/05/31 07:28:45;;;;;;;0.50;0.30;;;21.30;99.90;;;;;;5094268;28;20469;-80
2021/05/31 07:31:11;;;;;;;0.50;0.30;;;21.30;99.90;;;;;;5094668;28;20466;-80
2021/05/31 07:33:37;;;;;;;2.30;1.83;;;21.20;99.90;;;;;;5101482;28;20438;-79
2021/05/31 07:36:04;;;;;;;4.30;4.00;;;21.30;99.90;;;;;;5114476;28;20442;-80
2021/05/31 07:38:30;;;;;;;0.50;0.30;;;20.80;99.90;;;;;;5115581;28;20485;-81
2021/05/31 07:40:58;;;;;;;6.13;2.47;;;20.30;99.90;;;;;;5116726;28;20543;-82
2021/05/31 07:43:24;;;;;;;0.50;0.40;;;20.40;99.90;;;;;;5124347;27;20438;-81
2021/05/31 07:45:51;;;;;;;0.50;0.30;;;20.60;99.90;;;;;;5129430;27;20953;-80
2021/05/31 07:48:17;;;;;;;0.50;0.30;;;20.80;99.90;;;;;;5133789;27;20553;-79
2021/05/31 07:50:44;;;;;;;0.70;0.67;;;21.00;99.90;;;;;;5136257;27;20430;-79
2021/05/31 07:53:10;;;;;;;0.50;0.40;;;21.10;99.90;;;;;;5134114;27;20442;-79
2021/05/31 07:55:36;;;;;;;0.83;0.60;;;21.30;99.90;;;;;;5135465;27;20485;-80
2021/05/31 07:58:05;;;;;;;0.50;0.30;;;21.50;99.90;;;;;;5134672;27;20542;-78
2021/05/31 08:00:32;;;;;;;0.50;0.30;;;21.60;99.90;;;;;;5135332;27;20470;-79
2021/05/31 08:02:58;;;;;;;0.50;0.30;;;21.80;99.90;;;;;;5134271;27;20846;-82
2021/05/31 08:05:24;;;;;;;0.50;0.30;;;21.90;99.90;;;;;;5134749;27;20461;-82
2021/05/31 08:07:52;;;;;;;1.37;1.27;;;22.00;99.90;;;;;;5135073;27;20450;-81
2021/05/31 08:10:18;;;;;;;0.50;0.30;;;22.20;99.90;;;;;;5134505;27;20442;-81
2021/05/31 08:12:46;;;;;;;1.13;0.87;;;22.40;99.90;;;;;;5132304;27;20438;-78
2021/05/31 08:15:14;;;;;;;0.90;0.50;;;22.70;99.90;;;;;;5126992;27;20433;-77
2021/05/31 08:17:41;;;;;;;0.50;0.30;;;23.00;99.90;;;;;;5134527;27;20475;-80
2021/05/31 08:20:09;;;;;;;0.50;0.40;;;23.40;99.90;;;;;;5134774;27;20534;-79
2021/05/31 08:22:35;;;;;;;0.50;0.40;;;23.70;99.90;;;;;;5135114;27;20445;-80
2021/05/31 08:25:03;;;;;;;0.80;0.80;;;23.90;99.90;;;;;;5134749;27;20438;-78
2021/05/31 08:27:29;;;;;;;1.53;0.87;;;23.80;99.90;;;;;;5133533;27;20892;-80
2021/05/31 08:29:56;;;;;;;0.50;0.40;;;23.60;99.90;;;;;;5133786;27;20989;-81
2021/05/31 08:32:23;;;;;;;1.67;1.60;;;22.80;99.90;;;;;;5134022;27;20441;-79
2021/05/31 08:34:49;;;;;;;0.50;0.30;;;22.40;99.90;;;;;;5116035;28;20442;-80
2021/05/31 08:37:16;;;;;;;0.50;0.40;;;22.30;99.90;;;;;;5113700;28;20808;-79
2021/05/31 08:39:43;;;;;;;0.50;0.30;;;22.70;99.90;;;;;;5114626;28;20499;-80
2021/05/31 08:42:09;;;;;;;0.50;0.30;;;23.40;99.90;;;;;;5115214;28;20442;-78
2021/05/31 08:44:36;;;;;;;34.17;30.53;;;24.30;99.90;;;;;;5125894;28;20802;-80
2021/05/31 08:47:03;;;;;;;0.50;0.30;;;25.60;99.90;;;;;;5134028;28;20959;-79
2021/05/31 08:49:30;;;;;;;0.50;0.30;;;26.90;99.90;;;;;;5134361;28;20444;-78
2021/05/31 08:51:57;;;;;;;2.50;1.00;;;27.30;99.90;;;;;;5132280;27;20445;-76
2021/05/31 08:54:23;;;;;;;0.50;0.30;;;27.10;93.00;;;;;;5133595;28;20440;-81
2021/05/31 08:56:50;;;;;;;0.50;0.30;;;26.10;93.20;;;;;;5135966;28;21009;-80
2021/05/31 08:59:16;;;;;;;0.97;0.40;;;25.60;93.30;;;;;;5134377;28;20465;-80
2021/05/31 09:01:42;;;;;;;1.77;1.67;;;24.70;93.20;;;;;;5097399;28;20460;-78
2021/05/31 09:04:13;;;;;;;0.50;0.40;;;24.30;93.00;;;;;;5097033;28;20436;-78
2021/05/31 09:06:41;;;;;;;0.50;0.30;;;23.10;93.80;;;;;;5104824;28;20457;-78
2021/05/31 09:09:07;;;;;;;0.93;0.70;;;23.10;95.50;;;;;;5118983;28;20503;-77
2021/05/31 09:11:34;;;;;;;2.20;1.80;;;23.10;97.60;;;;;;5114432;28;20480;-79
2021/05/31 09:14:01;;;;;;;0.50;0.30;;;22.90;98.40;;;;;;5121129;28;20457;-78
2021/05/31 09:16:28;;;;;;;0.87;0.87;;;23.20;99.90;;;;;;5133064;28;20799;-79
2021/05/31 09:18:57;;;;;;;0.50;0.40;;;23.50;99.20;;;;;;5133584;28;20474;-79
2021/05/31 09:21:26;;;;;;;3.13;1.03;;;23.60;97.50;;;;;;5133355;27;20529;-77
2021/05/31 09:23:56;;;;;;;1.13;1.03;;;23.20;97.20;;;;;;5136996;27;20441;-79
2021/05/31 09:26:22;;;;;;;0.50;0.30;;;22.40;99.90;;;;;;5137615;27;20432;-78
2021/05/31 09:28:58;;;;;;;0.50;0.30;;;22.30;99.90;;;;;;5137946;27;20482;-79
2021/05/31 09:31:26;;;;;;;1.43;1.33;;;22.60;99.90;;;;;;5137816;27;20444;-79
2021/05/31 09:34:00;;;;;;;1.43;1.17;;;22.40;99.90;;;;;;5136285;27;20449;-79
2021/05/31 09:36:27;;;;;;;0.60;0.60;;;22.20;99.90;;;;;;5137169;27;20448;-80
2021/05/31 09:38:55;;;;;;;0.50;0.40;;;22.20;99.90;;;;;;5137596;27;20861;-78
2021/05/31 09:41:27;;;;;;;0.50;0.40;;;22.40;99.90;;;;;;5137039;27;20433;-78
2021/05/31 09:43:55;;;;;;;0.50;0.40;;;22.70;99.90;;;;;;5128207;27;20439;-79
2021/05/31 09:46:32;;;;;;;0.50;0.30;;;22.90;99.90;;;;;;5116947;28;20498;-79
2021/05/31 09:48:58;;;;;;;0.60;0.40;;;23.30;99.90;;;;;;5116503;28;20450;-79
2021/05/31 09:51:25;;;;;;;11.40;2.43;;;23.40;99.90;;;;;;5116494;28;20789;-80
2021/05/31 09:53:55;;;;;;;2.47;0.93;;;23.70;99.90;;;;;;5116284;28;20434;-79
2021/05/31 09:56:22;;;;;;;0.60;0.40;;;23.60;97.20;;;;;;5116475;28;20434;-79
2021/05/31 09:58:51;;;;;;;0.50;0.30;;;24.10;96.90;;;;;;5115994;28;20999;-79
2021/05/31 10:01:33;;;;;;;0.77;0.60;;;24.10;96.00;;;;;;5116907;28;20788;-79
2021/05/31 10:04:12;;;;;;;1.03;0.87;;;23.80;95.90;;;;;;5116005;28;20501;-78
2021/05/31 10:06:45;;;;;;;0.93;0.90;;;23.60;96.80;;;;;;5116556;28;20437;-79
2021/05/31 10:09:13;;;;;;;0.50;0.30;;;22.80;94.90;;;;;;5115986;28;20994;-78
2021/05/31 10:11:39;;;;;;;3.23;1.33;;;22.60;96.90;;;;;;5116023;28;20435;-80
2021/05/31 10:14:06;;;;;;;0.50;0.33;;;23.00;99.90;;;;;;5124830;27;20890;-79
2021/05/31 10:16:33;;;;;;;1.17;1.17;;;23.40;99.70;;;;;;5136774;27;20425;-79
2021/05/31 10:18:59;;;;;;;1.00;0.90;;;23.80;96.50;;;;;;5137994;27;20477;-80
2021/05/31 10:21:25;;;;;;;0.50;0.40;;;24.00;94.20;;;;;;5137061;27;20430;-79
2021/05/31 10:23:53;;;;;;;0.63;0.63;;;24.40;94.80;;;;;;5137500;27;20447;-80
2021/05/31 10:26:22;;;;;;;0.50;0.30;;;24.80;94.20;;;;;;5138410;27;20441;-77
2021/05/31 10:28:49;;;;;;;1.07;1.07;;;25.60;94.20;;;;;;5137295;27;20985;-79
2021/05/31 10:31:15;;;;;;;0.50;0.30;;;24.40;88.30;;;;;;5136852;27;20442;-80
2021/05/31 10:33:42;;;;;;;1.07;0.63;;;24.50;90.30;;;;;;5135038;27;20957;-80
2021/05/31 10:36:15;;;;;;;18.63;10.70;;;24.00;82.40;;;;;;5135844;27;20448;-79
2021/05/31 10:38:44;;;;;;;0.50;0.40;;;23.70;88.50;;;;;;5136022;27;20522;-80
2021/05/31 10:41:12;;;;;;;0.90;0.80;;;23.90;91.50;;;;;;5136232;27;21259;-79
2021/05/31 10:43:48;;;;;;;0.50;0.40;;;24.00;86.90;;;;;;5128752;27;20849;-79
2021/05/31 10:46:18;;;;;;;0.50;0.40;;;24.00;88.20;;;;;;5134498;27;20439;-76
2021/05/31 10:48:46;;;;;;;1.43;1.33;;;24.20;88.80;;;;;;5135790;27;20598;-79
2021/05/31 10:51:17;;;;;;;0.80;0.80;;;24.20;89.20;;;;;;5136612;27;20434;-78
2021/05/31 10:53:44;;;;;;;0.63;0.63;;;24.40;91.10;;;;;;5136028;27;20447;-78
2021/05/31 10:56:12;;;;;;;0.50;0.30;;;23.30;88.80;;;;;;5136675;27;20440;-78
2021/05/31 10:58:40;;;;;;;0.50;0.30;;;23.60;90.10;;;;;;5135140;27;20486;-79
2021/05/31 11:01:10;;;;;;;0.50;0.30;;;24.00;91.90;;;;;;5136416;27;20455;-79
2021/05/31 11:03:48;;;;;;;2.60;1.30;;;24.30;90.70;;;;;;5136795;27;20787;-79
2021/05/31 11:06:16;;;;;;;0.50;0.40;;;23.70;83.80;;;;;;5136416;27;20809;-79
2021/05/31 11:08:49;;;;;;;0.50;0.40;;;23.70;86.20;;;;;;5136136;27;20450;-79
2021/05/31 11:11:25;;;;;;;0.50;0.50;;;23.90;90.10;;;;;;5136193;27;20426;-79
2021/05/31 11:13:53;;;;;;;2.83;1.47;;;24.00;88.00;;;;;;5124856;27;20438;-80
2021/05/31 11:16:21;;;;;;;1.57;1.20;;;23.70;85.50;;;;;;5117385;27;20438;-79
2021/05/31 11:18:49;;;;;;;0.50;0.40;;;23.30;86.50;;;;;;5115506;28;20808;-79
2021/05/31 11:21:29;;;;;;;0.50;0.40;;;23.30;83.50;;;;;;5116161;28;20446;-79
2021/05/31 11:23:57;;;;;;;0.50;0.30;;;23.70;89.00;;;;;;5116311;28;20803;-80
2021/05/31 11:26:26;;;;;;;1.07;1.00;;;24.10;85.60;;;;;;5115825;28;20434;-78
2021/05/31 11:28:55;;;;;;;0.50;0.40;;;23.90;86.30;;;;;;5115554;28;20461;-81
2021/05/31 11:31:23;;;;;;;1.63;1.53;;;24.00;85.90;;;;;;5115913;28;21035;-80
2021/05/31 11:33:53;;;;;;;2.10;1.73;;;24.20;76.70;;;;;;5114957;28;20431;-78
2021/05/31 11:36:27;;;;;;;1.70;1.60;;;23.60;80.00;;;;;;5115220;28;20470;-76
2021/05/31 11:38:54;;;;;;;0.50;0.30;;;23.30;81.60;;;;;;5113775;28;20473;-79
2021/05/31 11:41:29;;;;;;;0.50;0.40;;;23.70;86.50;;;;;;5114510;28;20499;-79
2021/05/31 11:43:55;;;;;;;0.73;0.63;;;24.00;84.30;;;;;;5122642;27;20445;-78
2021/05/31 11:46:23;;;;;;;0.50;0.30;;;24.70;79.90;;;;;;5134355;27;20822;-77
2021/05/31 11:48:49;;;;;;;0.60;0.60;;;25.10;78.00;;;;;;5134368;27;20461;-79
2021/05/31 11:51:16;;;;;;;0.70;0.70;;;26.20;76.60;;;;;;5134639;27;20434;-78
2021/05/31 11:53:44;;;;;;;0.50;0.40;;;26.20;64.50;;;;;;5134897;27;20433;-78
2021/05/31 11:56:11;;;;;;;0.50;0.40;;;26.50;64.20;;;;;;5136108;27;20434;-81
2021/05/31 11:58:40;;;;;;;1.00;0.70;;;27.40;65.00;;;;;;5135015;27;20477;-80
2021/05/31 12:01:10;;;;;;;0.50;0.30;;;27.60;66.30;;;;;;5135252;27;20680;-79
2021/05/31 12:03:38;;;;;;;6.13;1.73;;;27.80;67.10;;;;;;5134608;27;20437;-80
2021/05/31 12:06:11;;;;;;;0.50;0.30;;;27.50;65.40;;;;;;5134575;27;20438;-80
2021/05/31 12:08:37;;;;;;;0.50;0.30;;;27.40;69.20;;;;;;5134338;27;20450;-80
2021/05/31 12:11:03;;;;;;;0.50;0.33;;;27.30;63.70;;;;;;5134480;27;20463;-79
2021/05/31 12:13:31;;;;;;;0.50;0.30;;;26.50;64.00;;;;;;5128795;27;20447;-79
2021/05/31 12:15:58;;;;;;;0.50;0.30;;;26.90;64.80;;;;;;5130793;27;20432;-80
2021/05/31 12:18:27;;;;;;;0.50;0.30;;;27.20;66.60;;;;;;5133927;27;20488;-80
2021/05/31 12:20:57;;;;;;;0.50;0.30;;;28.00;62.80;;;;;;5135830;27;20437;-80
2021/05/31 12:23:25;;;;;;;0.50;0.30;;;29.00;63.00;;;;;;5137277;27;20418;-80
2021/05/31 12:25:52;;;;;;;0.93;0.83;;;29.80;61.40;;;;;;5135328;27;20477;-79
2021/05/31 12:28:19;;;;;;;0.50;0.40;;;28.20;58.40;;;;;;5134516;27;20491;-79
2021/05/31 12:30:46;;;;;;;0.50;0.30;;;27.50;58.40;;;;;;5134270;27;20952;-80
2021/05/31 12:33:14;;;;;;;0.50;0.30;;;27.10;59.40;;;;;;5134170;27;20458;-76
2021/05/31 12:35:43;;;;;;;0.50;0.30;;;27.90;60.50;;;;;;5134165;27;20942;-80
2021/05/31 12:38:11;;;;;;;0.50;0.30;;;29.30;62.80;;;;;;5134265;27;20481;-81
2021/05/31 12:40:40;;;;;;;0.50;0.40;;;31.00;59.00;;;;;;5135060;28;20448;-79
2021/05/31 12:43:07;;;;;;;0.50;0.30;;;32.30;57.20;;;;;;5131848;28;20449;-80
2021/05/31 12:45:40;;;;;;;0.60;0.60;;;32.20;55.20;;;;;;5126719;28;20519;-79
2021/05/31 12:48:16;;;;;;;0.50;0.30;;;32.20;54.30;;;;;;5134573;28;20507;-80
2021/05/31 12:50:42;;;;;;;0.80;0.50;;;32.40;54.60;;;;;;5134109;28;20413;-81
2021/05/31 12:53:12;;;;;;;4.83;1.37;;;30.30;54.90;;;;;;5133181;28;20462;-80
2021/05/31 12:55:40;;;;;;;1.20;0.90;;;28.10;57.20;;;;;;5134332;28;20433;-80